Time;durP1;ratioP1;P1;durP2;ratioP2;P2;SDS_P1;SDS_P2;PMS_P1;PMS_P2;Temp;Humidity;BMP_temperature;BMP_pressure;BME280_temperature;BME280_humidity;BME280_pressure;Samples;Min_cycle;Max_cycle;Signal;HPM_P1;HPM_P2
2022/09/30 00:01:38;;;;;;;1.73;0.73;;;8.00;99.90;;;;;;4389622;32;20813;-77
2022/09/30 00:04:05;;;;;;;0.52;0.52;;;8.00;99.90;;;;;;4372049;32;21552;-77
2022/09/30 00:06:31;;;;;;;1.15;0.73;;;7.90;99.90;;;;;;4373789;32;20809;-78
2022/09/30 00:08:57;;;;;;;0.50;0.50;;;7.80;99.90;;;;;;4392029;32;20540;-77
2022/09/30 00:11:25;;;;;;;0.77;0.77;;;7.80;99.90;;;;;;4393160;32;20165;-78
2022/09/30 00:13:52;;;;;;;1.90;0.93;;;7.70;99.90;;;;;;4391276;32;20118;-78
2022/09/30 00:16:20;;;;;;;0.55;0.55;;;7.60;99.90;;;;;;4393541;32;20429;-77
2022/09/30 00:18:46;;;;;;;0.40;0.40;;;7.60;99.90;;;;;;4393350;32;20069;-77
2022/09/30 00:21:14;;;;;;;0.98;0.82;;;7.50;99.90;;;;;;4390278;32;20231;-78
2022/09/30 00:23:40;;;;;;;4.53;1.20;;;7.50;99.90;;;;;;4392353;32;20475;-77
2022/09/30 00:26:10;;;;;;;2.25;0.85;;;7.50;99.90;;;;;;4394359;32;20070;-77
2022/09/30 00:28:36;;;;;;;0.98;0.52;;;7.50;99.90;;;;;;4391377;32;20082;-77
2022/09/30 00:31:05;;;;;;;7.05;2.80;;;7.50;99.90;;;;;;4396990;32;20086;-77
2022/09/30 00:33:30;;;;;;;1.83;0.75;;;7.50;99.90;;;;;;4380217;32;20183;-76
2022/09/30 00:35:56;;;;;;;1.30;1.00;;;7.50;99.90;;;;;;4365276;32;20098;-77
2022/09/30 00:38:21;;;;;;;0.70;0.70;;;7.40;99.90;;;;;;4390058;32;20450;-77
2022/09/30 00:40:48;;;;;;;0.90;0.90;;;7.40;99.90;;;;;;4390337;32;20070;-77
2022/09/30 00:43:16;;;;;;;0.82;0.60;;;7.50;99.90;;;;;;4395502;32;20115;-77
2022/09/30 00:45:50;;;;;;;0.50;0.50;;;7.50;99.90;;;;;;4393779;32;20125;-77
2022/09/30 00:48:23;;;;;;;0.75;0.75;;;7.50;99.90;;;;;;4396007;32;20528;-78
2022/09/30 00:50:54;;;;;;;0.55;0.55;;;7.60;99.90;;;;;;4394954;32;20086;-76
2022/09/30 00:53:28;;;;;;;0.45;0.45;;;7.50;99.90;;;;;;4394256;32;20130;-78
2022/09/30 00:56:08;;;;;;;0.40;0.40;;;7.60;99.90;;;;;;4394587;32;20098;-78
2022/09/30 00:58:41;;;;;;;1.20;0.83;;;7.60;99.90;;;;;;4393956;32;20103;-79
2022/09/30 01:01:08;;;;;;;0.85;0.68;;;7.50;99.90;;;;;;4393710;32;20054;-78
2022/09/30 01:03:40;;;;;;;0.65;0.65;;;7.50;99.90;;;;;;4378920;32;20074;-77
2022/09/30 01:06:06;;;;;;;0.55;0.55;;;7.50;99.90;;;;;;4371069;32;20145;-78
2022/09/30 01:08:34;;;;;;;0.90;0.88;;;7.60;99.90;;;;;;4399298;32;20329;-78
2022/09/30 01:11:00;;;;;;;4.03;1.67;;;7.60;99.90;;;;;;4398739;32;20086;-78
2022/09/30 01:13:28;;;;;;;0.57;0.57;;;7.60;99.90;;;;;;4397175;32;20113;-78
2022/09/30 01:16:06;;;;;;;2.80;0.93;;;7.60;99.90;;;;;;4395322;32;20094;-77
2022/09/30 01:18:45;;;;;;;0.93;0.90;;;7.50;99.90;;;;;;4397045;32;20090;-79
2022/09/30 01:21:29;;;;;;;0.70;0.70;;;7.50;99.90;;;;;;4398836;32;20110;-79
2022/09/30 01:24:28;;;;;;;0.90;0.90;;;7.50;99.90;;;;;;4398089;32;20090;-78
2022/09/30 01:27:12;;;;;;;0.88;0.88;;;7.40;99.90;;;;;;4386595;32;20081;-78
2022/09/30 01:30:08;;;;;;;0.80;0.62;;;7.50;99.90;;;;;;4395433;32;20124;-77
2022/09/30 01:33:02;;;;;;;1.25;0.80;;;7.50;99.90;;;;;;4384605;32;20634;-76
2022/09/30 01:35:57;;;;;;;1.35;0.85;;;7.30;99.90;;;;;;4369203;32;20097;-75
2022/09/30 01:38:43;;;;;;;0.62;0.57;;;7.40;99.90;;;;;;4387691;32;20098;-79
2022/09/30 01:41:20;;;;;;;0.90;0.90;;;7.40;99.90;;;;;;4396912;32;20074;-77
2022/09/30 01:44:11;;;;;;;2.10;0.90;;;7.30;99.90;;;;;;4398047;32;20800;-78
2022/09/30 01:46:43;;;;;;;0.85;0.82;;;7.30;99.90;;;;;;4393267;32;20098;-77
2022/09/30 01:49:36;;;;;;;0.70;0.70;;;7.30;99.90;;;;;;4395983;32;20061;-78
2022/09/30 01:52:24;;;;;;;0.52;0.52;;;7.30;99.90;;;;;;4384310;32;20065;-79
2022/09/30 01:54:59;;;;;;;0.70;0.70;;;7.20;99.90;;;;;;4383370;32;20067;-78
2022/09/30 01:57:47;;;;;;;0.88;0.88;;;7.20;99.90;;;;;;4387818;32;20098;-78
2022/09/30 02:00:14;;;;;;;0.80;0.80;;;7.30;99.90;;;;;;4381201;32;20069;-78
2022/09/30 02:02:54;;;;;;;0.80;0.80;;;7.30;99.90;;;;;;4388471;32;20058;-76
2022/09/30 02:05:25;;;;;;;0.60;0.60;;;7.20;99.90;;;;;;4367751;32;20066;-76
2022/09/30 02:07:57;;;;;;;0.47;0.47;;;7.20;99.90;;;;;;4388718;32;20069;-78
2022/09/30 02:10:28;;;;;;;1.17;0.80;;;7.20;99.90;;;;;;4390948;32;20070;-79
2022/09/30 02:13:02;;;;;;;0.75;0.75;;;7.10;99.90;;;;;;4390650;32;20137;-77
2022/09/30 02:15:34;;;;;;;0.57;0.57;;;7.10;99.90;;;;;;4391003;32;20098;-77
2022/09/30 02:18:09;;;;;;;0.70;0.70;;;7.00;99.90;;;;;;4388670;32;20200;-77
2022/09/30 02:20:39;;;;;;;0.73;0.73;;;6.90;99.90;;;;;;4390747;32;20541;-77
2022/09/30 02:23:11;;;;;;;0.40;0.40;;;6.90;99.90;;;;;;4388895;32;20646;-79
2022/09/30 02:25:43;;;;;;;6.03;1.10;;;7.00;99.90;;;;;;4392429;32;20125;-77
2022/09/30 02:28:13;;;;;;;0.75;0.75;;;6.90;99.90;;;;;;4391544;32;20069;-77
2022/09/30 02:30:43;;;;;;;2.28;1.77;;;6.90;99.90;;;;;;4390309;32;20102;-77
2022/09/30 02:33:14;;;;;;;1.67;0.70;;;6.90;99.90;;;;;;4382334;32;20077;-76
2022/09/30 02:35:44;;;;;;;;;;;6.90;99.90;;;;;;4367162;32;20114;-76
2022/09/30 02:38:17;;;;;;;0.63;0.63;;;6.90;99.90;;;;;;4390394;32;19981;-77
2022/09/30 02:40:49;;;;;;;0.88;0.62;;;6.90;99.90;;;;;;4388680;32;20597;-77
2022/09/30 02:43:17;;;;;;;0.57;0.57;;;6.90;99.90;;;;;;4393038;32;20220;-77
2022/09/30 02:46:02;;;;;;;1.40;1.23;;;6.90;99.90;;;;;;4388603;32;20103;-77
2022/09/30 02:48:35;;;;;;;68.55;1.35;;;7.00;99.90;;;;;;4388551;32;20102;-78
2022/09/30 02:51:10;;;;;;;0.60;0.60;;;7.00;99.90;;;;;;4387200;32;20125;-78
2022/09/30 02:53:48;;;;;;;0.60;0.60;;;7.00;99.90;;;;;;4390577;32;20082;-76
2022/09/30 02:56:38;;;;;;;0.62;0.43;;;6.90;99.90;;;;;;4390144;32;20521;-77
2022/09/30 02:59:04;;;;;;;0.50;0.50;;;7.00;99.90;;;;;;4382410;32;20130;-78
2022/09/30 03:01:29;;;;;;;0.50;0.50;;;6.90;99.90;;;;;;4388614;32;20476;-79
2022/09/30 03:04:02;;;;;;;0.60;0.60;;;6.90;99.90;;;;;;4374553;32;20475;-77
2022/09/30 03:06:28;;;;;;;0.60;0.60;;;6.90;99.90;;;;;;4370391;32;20065;-77
2022/09/30 03:08:53;;;;;;;0.73;0.73;;;6.80;99.90;;;;;;4391505;32;20537;-78
2022/09/30 03:11:22;;;;;;;0.40;0.40;;;6.90;99.90;;;;;;4393094;32;20410;-77
2022/09/30 03:14:07;;;;;;;0.77;0.77;;;6.90;99.90;;;;;;4392109;32;20081;-78
2022/09/30 03:17:16;;;;;;;5.20;1.35;;;6.90;99.90;;;;;;4388034;32;20154;-78
2022/09/30 03:20:03;;;;;;;0.68;0.65;;;7.00;99.90;;;;;;4380490;32;20609;-77
2022/09/30 03:22:46;;;;;;;0.57;0.57;;;7.00;99.90;;;;;;4393429;32;20090;-78
2022/09/30 03:25:36;;;;;;;0.70;0.70;;;7.00;99.90;;;;;;4390036;32;20442;-77
2022/09/30 03:28:25;;;;;;;0.62;0.60;;;7.00;99.90;;;;;;4382710;32;20082;-78
2022/09/30 03:31:11;;;;;;;0.57;0.57;;;7.00;99.90;;;;;;4381731;32;20078;-77
2022/09/30 03:34:01;;;;;;;0.82;0.82;;;7.00;99.90;;;;;;4377262;32;20070;-76
2022/09/30 03:36:39;;;;;;;0.50;0.50;;;6.90;99.90;;;;;;4357290;32;20486;-77
2022/09/30 03:39:23;;;;;;;1.30;1.10;;;6.80;99.90;;;;;;4389706;32;20604;-78
2022/09/30 03:41:58;;;;;;;1.17;0.70;;;6.70;99.90;;;;;;4390092;32;20109;-77
2022/09/30 03:44:30;;;;;;;0.52;0.52;;;6.70;99.90;;;;;;4391681;32;20069;-79
2022/09/30 03:47:01;;;;;;;0.60;0.60;;;6.70;99.90;;;;;;4389850;32;20136;-78
2022/09/30 03:49:32;;;;;;;0.65;0.65;;;6.60;99.90;;;;;;4390938;32;20094;-77
2022/09/30 03:52:03;;;;;;;0.68;0.68;;;6.60;99.90;;;;;;4387810;32;20097;-78
2022/09/30 03:54:29;;;;;;;0.85;0.85;;;6.60;99.90;;;;;;4390944;32;20082;-77
2022/09/30 03:56:55;;;;;;;0.40;0.40;;;6.50;99.90;;;;;;4388370;32;20203;-78
2022/09/30 03:59:24;;;;;;;0.57;0.50;;;6.50;99.90;;;;;;4392734;32;20601;-78
2022/09/30 04:01:50;;;;;;;0.50;0.50;;;6.50;99.90;;;;;;4392179;32;20094;-77
2022/09/30 04:04:15;;;;;;;2.72;1.42;;;6.50;99.90;;;;;;4371025;32;20094;-76
2022/09/30 04:06:41;;;;;;;15.25;1.48;;;6.50;99.90;;;;;;4374127;32;20428;-78
2022/09/30 04:09:06;;;;;;;0.52;0.52;;;6.50;99.90;;;;;;4392351;32;20081;-78
2022/09/30 04:11:32;;;;;;;0.98;0.73;;;6.50;99.90;;;;;;4390973;32;20082;-78
2022/09/30 04:13:58;;;;;;;0.75;0.75;;;6.40;99.90;;;;;;4389701;32;20093;-77
2022/09/30 04:16:23;;;;;;;0.47;0.47;;;6.40;99.90;;;;;;4388191;32;20582;-78
2022/09/30 04:18:49;;;;;;;0.60;0.60;;;6.40;99.90;;;;;;4387690;32;20075;-77
2022/09/30 04:21:15;;;;;;;1.05;0.93;;;6.60;99.90;;;;;;4382438;32;20101;-77
2022/09/30 04:23:41;;;;;;;0.57;0.57;;;6.50;99.90;;;;;;4352047;32;20137;-76
2022/09/30 04:26:11;;;;;;;0.50;0.50;;;6.50;99.90;;;;;;4343616;32;20099;-74
2022/09/30 04:28:37;;;;;;;0.80;0.80;;;6.60;99.90;;;;;;4333668;32;20564;-74
2022/09/30 04:31:04;;;;;;;0.32;0.32;;;6.70;99.90;;;;;;4333794;32;20900;-74
2022/09/30 04:33:29;;;;;;;0.98;0.70;;;6.70;99.90;;;;;;4325306;32;20468;-74
2022/09/30 04:35:58;;;;;;;2.85;0.90;;;6.60;99.90;;;;;;4347026;32;20144;-75
2022/09/30 04:38:24;;;;;;;0.80;0.70;;;6.50;99.90;;;;;;4391084;32;20470;-76
2022/09/30 04:40:51;;;;;;;0.90;0.88;;;6.50;99.90;;;;;;4390889;32;20102;-77
2022/09/30 04:43:18;;;;;;;0.50;0.50;;;6.50;99.90;;;;;;4390222;32;20161;-77
2022/09/30 04:45:45;;;;;;;2.70;1.15;;;6.50;99.90;;;;;;4390241;32;20098;-77
2022/09/30 04:48:11;;;;;;;1.55;1.02;;;6.40;99.90;;;;;;4387765;32;20094;-77
2022/09/30 04:50:37;;;;;;;0.62;0.62;;;6.40;99.90;;;;;;4389737;32;20125;-77
2022/09/30 04:53:03;;;;;;;1.95;1.05;;;6.40;99.90;;;;;;4360202;32;20378;-75
2022/09/30 04:55:29;;;;;;;0.60;0.60;;;6.50;99.90;;;;;;4337381;32;20149;-75
2022/09/30 04:57:55;;;;;;;0.70;0.70;;;6.60;99.90;;;;;;4381730;32;20102;-77
2022/09/30 05:00:21;;;;;;;0.40;0.40;;;6.60;99.90;;;;;;4384415;32;20074;-76
2022/09/30 05:02:46;;;;;;;1.48;1.23;;;6.60;99.90;;;;;;4367291;32;20097;-75
2022/09/30 05:05:12;;;;;;;0.85;0.85;;;6.60;99.90;;;;;;4333655;32;20081;-75
2022/09/30 05:07:38;;;;;;;3.83;2.17;;;6.50;99.90;;;;;;4333636;32;20154;-74
2022/09/30 05:10:04;;;;;;;0.65;0.65;;;6.40;99.90;;;;;;4329477;32;20464;-75
2022/09/30 05:12:30;;;;;;;0.95;0.60;;;6.50;99.90;;;;;;4322640;32;20172;-75
2022/09/30 05:14:57;;;;;;;0.90;0.70;;;6.40;99.90;;;;;;4330516;32;20069;-74
2022/09/30 05:17:22;;;;;;;0.30;0.30;;;6.30;99.90;;;;;;4333970;32;20094;-74
2022/09/30 05:19:48;;;;;;;0.43;0.43;;;6.30;99.90;;;;;;4279656;32;21035;-75
2022/09/30 05:22:14;;;;;;;0.80;0.80;;;6.30;99.90;;;;;;4282866;32;20410;-74
2022/09/30 05:24:40;;;;;;;0.82;0.82;;;6.30;99.90;;;;;;4243243;32;20110;-74
2022/09/30 05:27:06;;;;;;;0.40;0.40;;;6.40;99.90;;;;;;4270127;32;20215;-74
2022/09/30 05:29:32;;;;;;;0.50;0.50;;;6.40;99.90;;;;;;4267258;32;21260;-75
2022/09/30 05:31:57;;;;;;;2.72;1.80;;;6.50;99.90;;;;;;4266882;32;20337;-75
2022/09/30 05:34:23;;;;;;;1.98;0.82;;;6.40;99.90;;;;;;4297243;32;20242;-75
2022/09/30 05:36:49;;;;;;;0.70;0.70;;;6.40;99.90;;;;;;4292544;32;20674;-74
2022/09/30 05:39:14;;;;;;;0.80;0.80;;;6.40;99.90;;;;;;4290441;32;20408;-77
2022/09/30 05:41:40;;;;;;;0.65;0.65;;;6.30;99.90;;;;;;4296665;32;20404;-75
2022/09/30 05:44:08;;;;;;;0.55;0.55;;;6.50;99.90;;;;;;4320965;32;20194;-75
2022/09/30 05:46:33;;;;;;;0.60;0.60;;;6.60;99.90;;;;;;4332733;32;20672;-76
2022/09/30 05:48:58;;;;;;;1.45;1.35;;;6.60;99.90;;;;;;4333707;32;20255;-75
2022/09/30 05:51:24;;;;;;;2.22;1.25;;;6.60;99.90;;;;;;4335282;32;20378;-75
2022/09/30 05:53:50;;;;;;;0.70;0.70;;;6.70;99.90;;;;;;4340965;32;20576;-76
2022/09/30 05:56:16;;;;;;;3.12;1.58;;;6.60;99.90;;;;;;4353031;32;21175;-76
2022/09/30 05:58:43;;;;;;;0.60;0.60;;;6.60;99.90;;;;;;4359819;32;20232;-75
2022/09/30 06:01:11;;;;;;;0.30;0.30;;;6.60;99.90;;;;;;4342154;32;20394;-76
2022/09/30 06:03:37;;;;;;;1.65;0.80;;;6.70;99.90;;;;;;4326734;32;20092;-75
2022/09/30 06:06:05;;;;;;;4.18;0.70;;;6.70;99.90;;;;;;4338419;32;20237;-76
2022/09/30 06:08:30;;;;;;;1.55;1.12;;;6.80;99.90;;;;;;4355893;32;20109;-76
2022/09/30 06:10:59;;;;;;;1.00;0.95;;;6.90;99.90;;;;;;4361451;32;20612;-76
2022/09/30 06:13:28;;;;;;;7.95;2.65;;;6.90;99.90;;;;;;4365507;32;21393;-76
2022/09/30 06:15:57;;;;;;;2.08;1.45;;;7.00;99.90;;;;;;4362652;32;20086;-76
2022/09/30 06:18:24;;;;;;;0.40;0.40;;;7.00;99.90;;;;;;4361754;32;20261;-75
2022/09/30 06:20:50;;;;;;;2.97;0.73;;;7.10;99.90;;;;;;4355602;32;20105;-76
2022/09/30 06:23:16;;;;;;;0.75;0.75;;;7.10;99.90;;;;;;4356140;32;20302;-76
2022/09/30 06:25:42;;;;;;;0.37;0.37;;;7.20;99.90;;;;;;4347823;32;20194;-75
2022/09/30 06:28:08;;;;;;;1.20;0.80;;;7.30;99.90;;;;;;4356144;32;20601;-77
2022/09/30 06:30:33;;;;;;;1.55;1.05;;;7.40;99.90;;;;;;4346554;32;20264;-76
2022/09/30 06:33:00;;;;;;;0.75;0.73;;;7.50;99.90;;;;;;4336877;32;20335;-75
2022/09/30 06:35:27;;;;;;;0.73;0.60;;;7.40;99.90;;;;;;4340821;32;21168;-77
2022/09/30 06:37:53;;;;;;;0.88;0.62;;;7.40;99.90;;;;;;4350205;32;20208;-75
2022/09/30 06:40:20;;;;;;;0.90;0.73;;;7.50;99.90;;;;;;4356937;32;20094;-76
2022/09/30 06:42:47;;;;;;;1.20;0.75;;;7.50;99.90;;;;;;4356100;32;20125;-76
2022/09/30 06:45:12;;;;;;;0.85;0.85;;;7.70;99.90;;;;;;4353280;32;20597;-77
2022/09/30 06:47:38;;;;;;;0.70;0.70;;;7.70;99.90;;;;;;4363210;32;20090;-78
2022/09/30 06:50:05;;;;;;;4.07;2.17;;;7.80;99.90;;;;;;4358216;32;20204;-76
2022/09/30 06:52:30;;;;;;;0.98;0.95;;;7.90;99.90;;;;;;4352251;32;20852;-76
2022/09/30 06:54:56;;;;;;;0.95;0.90;;;8.00;99.90;;;;;;4349109;32;20089;-75
2022/09/30 06:57:23;;;;;;;0.45;0.45;;;8.10;99.90;;;;;;4354398;32;20201;-76
2022/09/30 06:59:49;;;;;;;0.88;0.80;;;8.00;99.90;;;;;;4338913;32;20239;-76
2022/09/30 07:02:15;;;;;;;1.08;0.98;;;8.20;99.90;;;;;;4323264;32;20097;-76
2022/09/30 07:04:41;;;;;;;0.75;0.70;;;8.30;99.90;;;;;;4320219;32;20593;-75
2022/09/30 07:07:06;;;;;;;1.37;0.88;;;8.30;99.90;;;;;;4335275;32;20098;-77
2022/09/30 07:09:32;;;;;;;0.62;0.62;;;8.40;99.90;;;;;;4342708;32;20102;-75
2022/09/30 07:11:58;;;;;;;0.88;0.70;;;8.40;99.90;;;;;;4345080;32;20180;-76
2022/09/30 07:14:23;;;;;;;0.80;0.80;;;8.40;99.90;;;;;;4349830;32;20243;-76
2022/09/30 07:16:52;;;;;;;0.90;0.77;;;8.50;99.90;;;;;;4352251;32;20213;-76
2022/09/30 07:19:21;;;;;;;1.23;0.95;;;8.60;99.90;;;;;;4341835;32;20766;-76
2022/09/30 07:21:48;;;;;;;1.70;0.62;;;8.60;99.90;;;;;;4347995;32;20140;-76
2022/09/30 07:24:14;;;;;;;0.60;0.60;;;8.70;99.90;;;;;;4346743;32;20090;-76
2022/09/30 07:26:39;;;;;;;0.65;0.65;;;8.90;99.90;;;;;;4354698;32;20420;-75
2022/09/30 07:29:15;;;;;;;1.10;0.80;;;9.00;99.90;;;;;;4347765;32;20323;-76
2022/09/30 07:31:41;;;;;;;1.27;1.17;;;9.00;99.90;;;;;;4326133;32;20323;-76
2022/09/30 07:34:14;;;;;;;0.68;0.68;;;9.10;99.90;;;;;;4327770;32;20344;-75
2022/09/30 07:36:40;;;;;;;0.60;0.60;;;9.20;99.90;;;;;;4342890;32;20070;-75
2022/09/30 07:39:08;;;;;;;0.45;0.45;;;9.30;99.90;;;;;;4353015;32;20672;-76
2022/09/30 07:41:38;;;;;;;0.50;0.50;;;9.40;99.90;;;;;;4363213;32;20170;-77
2022/09/30 07:44:06;;;;;;;1.20;0.90;;;9.60;99.90;;;;;;4353187;32;20070;-76
2022/09/30 07:46:33;;;;;;;0.90;0.85;;;9.70;99.90;;;;;;4354183;32;20735;-77
2022/09/30 07:49:03;;;;;;;0.47;0.47;;;9.80;99.90;;;;;;4347974;32;21515;-75
2022/09/30 07:51:33;;;;;;;0.68;0.68;;;9.90;99.90;;;;;;4337411;32;20137;-75
2022/09/30 07:54:04;;;;;;;2.05;0.88;;;10.00;99.90;;;;;;4341237;32;20134;-76
2022/09/30 07:56:31;;;;;;;10.15;1.48;;;10.10;99.90;;;;;;4338696;32;20513;-76
2022/09/30 07:58:59;;;;;;;0.60;0.60;;;10.10;99.90;;;;;;4349555;32;20089;-74
2022/09/30 08:01:31;;;;;;;0.70;0.70;;;10.10;99.90;;;;;;4344298;32;20077;-75
2022/09/30 08:04:00;;;;;;;1.73;1.05;;;10.10;99.90;;;;;;4348264;32;20163;-75
2022/09/30 08:06:26;;;;;;;0.65;0.65;;;10.30;99.90;;;;;;4350385;32;20114;-76
2022/09/30 08:08:54;;;;;;;1.67;0.75;;;10.30;99.90;;;;;;4346939;32;20647;-76
2022/09/30 08:11:20;;;;;;;2.05;0.75;;;10.40;99.90;;;;;;4348236;32;20702;-76
2022/09/30 08:13:55;;;;;;;1.08;0.93;;;10.40;99.90;;;;;;4351288;32;20098;-76
2022/09/30 08:16:23;;;;;;;1.40;0.85;;;10.50;99.90;;;;;;4354460;32;20480;-76
2022/09/30 08:18:52;;;;;;;1.77;1.02;;;10.70;99.90;;;;;;4357755;32;20672;-78
2022/09/30 08:21:17;;;;;;;0.80;0.80;;;10.80;99.90;;;;;;4357333;32;20106;-75
2022/09/30 08:23:43;;;;;;;0.60;0.60;;;10.80;99.90;;;;;;4354567;32;20154;-74
2022/09/30 08:26:11;;;;;;;1.55;0.70;;;10.80;99.90;;;;;;4353390;32;20097;-77
2022/09/30 08:28:39;;;;;;;0.90;0.68;;;10.80;99.90;;;;;;4347695;32;20101;-78
2022/09/30 08:31:11;;;;;;;0.85;0.73;;;11.00;99.90;;;;;;4343593;32;20215;-78
2022/09/30 08:33:37;;;;;;;1.55;0.85;;;11.00;99.90;;;;;;4343922;32;162877;-77
2022/09/30 08:36:05;;;;;;;2.67;1.73;;;11.10;99.90;;;;;;4349072;32;20648;-76
2022/09/30 08:38:31;;;;;;;1.50;0.75;;;11.30;99.90;;;;;;4347978;32;20085;-76
2022/09/30 08:41:23;;;;;;;1.85;0.88;;;11.40;99.90;;;;;;4352820;32;20712;-75
2022/09/30 08:44:14;;;;;;;4.40;1.35;;;11.50;99.90;;;;;;4336254;32;20533;-75
2022/09/30 08:47:20;;;;;;;2.00;0.93;;;11.60;99.90;;;;;;4324366;32;20190;-76
2022/09/30 08:49:59;;;;;;;0.70;0.62;;;11.70;99.90;;;;;;4324173;32;20388;-74
2022/09/30 08:52:32;;;;;;;0.65;0.65;;;11.80;99.90;;;;;;4351175;32;20802;-74
2022/09/30 08:54:58;;;;;;;0.95;0.90;;;12.00;99.90;;;;;;4353044;32;21475;-74
2022/09/30 08:57:27;;;;;;;2.17;1.00;;;12.10;99.90;;;;;;4351302;32;20463;-77
2022/09/30 08:59:57;;;;;;;10.10;0.82;;;12.10;99.90;;;;;;4339351;32;20097;-74
2022/09/30 09:02:29;;;;;;;1.95;1.12;;;12.10;99.90;;;;;;4338693;32;20844;-76
2022/09/30 09:04:59;;;;;;;1.42;1.00;;;12.20;99.90;;;;;;4340994;32;20257;-77
2022/09/30 09:07:57;;;;;;;5.65;1.27;;;12.20;99.90;;;;;;4350302;32;20085;-76
2022/09/30 09:10:41;;;;;;;0.88;0.80;;;12.30;99.90;;;;;;4326258;32;20090;-75
2022/09/30 09:13:28;;;;;;;2.20;1.00;;;12.50;99.90;;;;;;4347581;32;21625;-75
2022/09/30 09:16:09;;;;;;;1.37;1.08;;;12.60;99.90;;;;;;4339722;32;20161;-74
2022/09/30 09:19:01;;;;;;;1.02;0.93;;;12.70;99.90;;;;;;4350051;32;20561;-75
2022/09/30 09:21:50;;;;;;;1.35;0.80;;;12.90;99.90;;;;;;4311234;32;21661;-73
2022/09/30 09:24:26;;;;;;;0.62;0.62;;;12.90;99.90;;;;;;4315625;32;20071;-74
2022/09/30 09:26:53;;;;;;;1.00;0.90;;;13.10;99.90;;;;;;4318491;32;20287;-74
2022/09/30 09:29:31;;;;;;;0.88;0.77;;;13.20;99.90;;;;;;4331627;32;20101;-74
2022/09/30 09:31:58;;;;;;;1.75;0.70;;;13.30;99.90;;;;;;4330438;32;20114;-75
2022/09/30 09:34:24;;;;;;;0.80;0.80;;;13.30;99.90;;;;;;4323749;32;20468;-75
2022/09/30 09:37:10;;;;;;;4.50;0.90;;;13.40;99.90;;;;;;4338758;32;20383;-76
2022/09/30 09:40:03;;;;;;;0.68;0.60;;;13.50;99.90;;;;;;4343896;32;20094;-76
2022/09/30 09:42:55;;;;;;;2.53;0.57;;;13.60;99.90;;;;;;4348302;32;20194;-76
2022/09/30 09:45:30;;;;;;;1.20;0.82;;;13.70;99.90;;;;;;4344330;32;21018;-80
2022/09/30 09:47:56;;;;;;;0.57;0.57;;;13.90;99.90;;;;;;4353996;32;21004;-79
2022/09/30 09:50:26;;;;;;;0.70;0.70;;;13.90;99.90;;;;;;4339277;32;20090;-78
2022/09/30 09:53:00;;;;;;;0.40;0.40;;;14.00;99.90;;;;;;4337962;32;20292;-81
2022/09/30 09:55:25;;;;;;;0.93;0.68;;;14.00;99.90;;;;;;4344152;32;20126;-77
2022/09/30 09:58:12;;;;;;;0.50;0.50;;;14.10;99.90;;;;;;4347549;32;20078;-77
2022/09/30 10:03:18;;;;;;;1.20;0.73;;;14.30;99.90;;;;;;4331956;32;20098;-78
2022/09/30 10:05:58;;;;;;;1.00;0.62;;;14.40;99.90;;;;;;4330718;32;20094;-78
2022/09/30 10:08:24;;;;;;;0.50;0.50;;;14.40;99.90;;;;;;4344192;32;20153;-76
2022/09/30 10:10:53;;;;;;;0.62;0.62;;;14.50;99.90;;;;;;4350371;32;20569;-78
2022/09/30 10:13:24;;;;;;;1.48;0.80;;;14.60;99.90;;;;;;4347260;32;20256;-75
2022/09/30 10:15:53;;;;;;;1.62;1.50;;;14.70;99.90;;;;;;4348353;32;20085;-75
2022/09/30 10:18:24;;;;;;;0.88;0.88;;;14.70;99.90;;;;;;4341910;32;20787;-76
2022/09/30 10:20:53;;;;;;;1.05;0.95;;;14.70;99.90;;;;;;4322359;32;20141;-76
2022/09/30 10:23:26;;;;;;;2.37;0.93;;;14.80;99.90;;;;;;4322852;32;21127;-76
2022/09/30 10:25:55;;;;;;;0.90;0.68;;;14.80;99.90;;;;;;4343525;32;20238;-76
2022/09/30 10:28:23;;;;;;;3.33;1.05;;;14.90;99.90;;;;;;4357910;32;21014;-77
2022/09/30 10:30:57;;;;;;;0.50;0.50;;;15.00;99.90;;;;;;4347272;32;20633;-76
2022/09/30 10:33:28;;;;;;;1.17;1.08;;;15.00;99.90;;;;;;4355553;32;20117;-75
2022/09/30 10:36:00;;;;;;;0.55;0.45;;;15.10;99.90;;;;;;4354061;32;20137;-75
2022/09/30 10:38:28;;;;;;;0.57;0.57;;;15.20;99.90;;;;;;4364953;32;20987;-75
2022/09/30 10:40:55;;;;;;;0.50;0.50;;;15.20;99.90;;;;;;4351230;32;20638;-76
2022/09/30 10:43:27;;;;;;;0.57;0.57;;;15.30;99.90;;;;;;4370385;32;21536;-75
2022/09/30 10:45:54;;;;;;;0.60;0.60;;;15.50;99.90;;;;;;4361791;32;20347;-76
2022/09/30 10:48:23;;;;;;;1.23;0.82;;;15.60;99.90;;;;;;4358682;32;21443;-76
2022/09/30 10:50:51;;;;;;;0.40;0.40;;;15.70;99.90;;;;;;4345117;32;20466;-75
2022/09/30 10:53:23;;;;;;;0.40;0.40;;;15.70;99.90;;;;;;4325350;32;20376;-76
2022/09/30 10:55:52;;;;;;;0.50;0.50;;;15.80;99.90;;;;;;4329765;32;20131;-76
2022/09/30 10:58:24;;;;;;;0.60;0.60;;;15.90;99.90;;;;;;4342792;32;20166;-76
2022/09/30 11:00:56;;;;;;;0.55;0.55;;;15.90;99.90;;;;;;4337026;32;20801;-75
2022/09/30 11:03:34;;;;;;;0.50;0.50;;;16.00;99.90;;;;;;4331882;32;20272;-75
2022/09/30 11:06:00;;;;;;;2.40;0.50;;;16.00;99.90;;;;;;4333879;32;20146;-75
2022/09/30 11:08:35;;;;;;;0.50;0.50;;;16.00;99.90;;;;;;4357314;32;20100;-75
2022/09/30 11:11:23;;;;;;;0.57;0.57;;;16.10;99.90;;;;;;4349001;32;20866;-75
2022/09/30 11:14:14;;;;;;;6.62;0.82;;;16.20;99.90;;;;;;4360400;32;20106;-75
2022/09/30 11:17:01;;;;;;;0.50;0.50;;;16.20;99.90;;;;;;4355052;32;20183;-76
2022/09/30 11:19:43;;;;;;;0.45;0.45;;;16.50;99.90;;;;;;4351445;32;20273;-76
2022/09/30 11:22:33;;;;;;;0.43;0.43;;;16.90;99.90;;;;;;4332667;32;20491;-76
2022/09/30 11:24:59;;;;;;;0.50;0.50;;;17.40;99.90;;;;;;4331832;32;20198;-75
2022/09/30 11:27:55;;;;;;;0.40;0.40;;;17.90;99.90;;;;;;4346562;32;20133;-77
2022/09/30 11:30:31;;;;;;;0.40;0.40;;;17.80;99.90;;;;;;4339467;32;20396;-75
2022/09/30 11:33:13;;;;;;;0.40;0.40;;;18.00;99.90;;;;;;4342985;32;20126;-75
2022/09/30 11:35:48;;;;;;;0.40;0.40;;;18.30;99.90;;;;;;4342984;32;20562;-76
2022/09/30 11:38:33;;;;;;;0.52;0.52;;;18.80;99.90;;;;;;4356816;32;20074;-76
2022/09/30 11:41:13;;;;;;;0.47;0.47;;;19.20;99.90;;;;;;4341473;32;21081;-77
2022/09/30 11:44:13;;;;;;;0.25;0.25;;;19.20;99.90;;;;;;4329274;32;20225;-78
2022/09/30 11:47:18;;;;;;;0.40;0.40;;;19.80;99.90;;;;;;4332642;32;21309;-75
2022/09/30 11:49:56;;;;;;;0.43;0.43;;;19.50;99.90;;;;;;4321113;32;21277;-76
2022/09/30 11:52:57;;;;;;;0.28;0.28;;;19.70;99.40;;;;;;4334623;32;20101;-76
2022/09/30 11:56:03;;;;;;;0.30;0.30;;;19.80;99.80;;;;;;4333701;32;20262;-75
2022/09/30 11:58:36;;;;;;;0.75;0.40;;;20.40;99.40;;;;;;4339445;32;20664;-76
2022/09/30 12:01:31;;;;;;;0.30;0.30;;;20.70;99.20;;;;;;4341831;32;20476;-76
2022/09/30 12:04:04;;;;;;;0.35;0.35;;;20.80;97.10;;;;;;4333151;32;20304;-77
2022/09/30 12:06:38;;;;;;;0.20;0.20;;;21.00;96.30;;;;;;4337877;32;21519;-78
2022/09/30 12:09:15;;;;;;;0.22;0.22;;;21.30;97.10;;;;;;4352222;32;20090;-78
2022/09/30 12:11:48;;;;;;;0.30;0.30;;;21.60;97.00;;;;;;4341410;32;20170;-78
2022/09/30 12:14:20;;;;;;;0.20;0.20;;;21.80;96.70;;;;;;4351636;32;20189;-77
2022/09/30 12:16:49;;;;;;;0.30;0.30;;;21.50;95.70;;;;;;4353042;32;20129;-76
2022/09/30 12:19:22;;;;;;;0.43;0.20;;;20.40;97.40;;;;;;4353507;32;20880;-76
2022/09/30 12:22:13;;;;;;;0.43;0.43;;;20.50;97.60;;;;;;4347403;32;20123;-76
2022/09/30 12:24:42;;;;;;;;;;;20.80;96.60;;;;;;4336940;32;20218;-76
2022/09/30 12:27:22;;;;;;;0.30;0.30;;;21.30;96.20;;;;;;4344056;32;20137;-75
2022/09/30 12:30:28;;;;;;;0.20;0.20;;;21.90;95.10;;;;;;4340111;32;20097;-75
2022/09/30 12:33:09;;;;;;;0.20;0.20;;;21.90;94.30;;;;;;4322650;32;20429;-77
2022/09/30 12:36:06;;;;;;;0.20;0.20;;;21.50;95.30;;;;;;4327192;32;20289;-76
2022/09/30 12:39:09;;;;;;;0.30;0.30;;;20.40;96.40;;;;;;4354040;32;20423;-78
2022/09/30 12:42:06;;;;;;;0.40;0.40;;;20.00;97.30;;;;;;4364332;32;20196;-78
2022/09/30 12:45:04;;;;;;;0.62;0.60;;;20.70;96.70;;;;;;4358805;32;20318;-78
2022/09/30 12:47:49;;;;;;;0.28;0.28;;;21.40;95.60;;;;;;4352987;32;20098;-76
2022/09/30 12:50:20;;;;;;;1.25;0.32;;;21.90;94.40;;;;;;4348581;32;20323;-78
2022/09/30 12:52:47;;;;;;;0.20;0.20;;;21.80;94.30;;;;;;4344593;32;20239;-77
2022/09/30 12:55:37;;;;;;;0.20;0.20;;;22.30;92.50;;;;;;4351589;32;20937;-77
2022/09/30 12:58:03;;;;;;;0.20;0.20;;;22.30;92.00;;;;;;4360126;32;20353;-77
2022/09/30 13:00:33;;;;;;;0.40;0.40;;;21.40;93.10;;;;;;4353262;32;20911;-77
2022/09/30 13:03:14;;;;;;;0.15;0.15;;;20.90;94.20;;;;;;4353969;32;20315;-77
2022/09/30 13:05:42;;;;;;;0.30;0.30;;;20.60;94.20;;;;;;4341672;32;21552;-78
2022/09/30 13:08:22;;;;;;;0.30;0.30;;;20.10;95.20;;;;;;4362676;32;20141;-77
2022/09/30 13:10:57;;;;;;;0.30;0.30;;;19.80;95.80;;;;;;4366807;32;20113;-78
2022/09/30 13:13:30;;;;;;;0.30;0.30;;;19.40;96.30;;;;;;4370100;32;20168;-77
2022/09/30 13:16:02;;;;;;;0.30;0.30;;;19.20;96.80;;;;;;4368305;32;20667;-76
2022/09/30 13:18:30;;;;;;;0.40;0.40;;;19.10;96.50;;;;;;4361739;32;20168;-78
2022/09/30 13:21:07;;;;;;;0.20;0.20;;;19.20;95.40;;;;;;4337836;32;20363;-78
2022/09/30 13:23:50;;;;;;;0.47;0.47;;;18.80;95.70;;;;;;4355047;32;20288;-77
2022/09/30 13:26:26;;;;;;;0.50;0.50;;;18.60;96.20;;;;;;4364255;32;20074;-78